Lake Village, AR (71653)

6:09 PM CDT on July 28, 2016 (GMT -0500)
Q102 Downtown Greenville | | Change Station

Elev 141 ft 33.41 °N, 91.06 °W | Updated 33 seconds ago

Scattered Clouds
Scattered Clouds
80.8 °F
Feels Like 87 °F
N
6.7
Wind Variable Wind from South
Gusts 6.7 mph

Today
High -- | Low -- °F
--% Chance of Precip.
Yesterday
High -- | Low -- °F
Precip. -- in
Pressure 29.97 in
Visibility 10.0 miles
Clouds Scattered Clouds 1600 ft
Heat Index 87 °F
Dew Point 77 °F
Humidity 88%
Rainfall 0.89 in
Snow Depth Not available.
6:15 AM 8:07 PM
Waning Crescent, 28% visible
METAR KGLH 282253Z AUTO 24010KT 10SM SCT016 28/22 A2995 RMK AO2 SLP147 T02780222
Pressure 29.97 in
Visibility 10.0 miles
Clouds Scattered Clouds 1600 ft
Heat Index 87 °F
Dew Point 77 °F
Humidity 88%
Rainfall 0.89 in
Snow Depth Not available.
6:15 AM 8:07 PM
Waning Crescent, 28% visible
METAR KGLH 282253Z AUTO 24010KT 10SM SCT016 28/22 A2995 RMK AO2 SLP147 T02780222

10-Day Weather Forecast

Almanac

Astronomy

Jul. 28, 2016 Rise Set
Actual Time
Civil Twilight
Nautical Twilight
Astronomical Twilight
Moon
Length of Visible Light
Length of Day
Tomorrow will be .
, % of the Moon is Illuminated

Today's Extremes

State Highs State Lows

Community

WunderPhotos

Upload Photos

1,928,226 photos uploaded!

WunderBlog® & News

Nearby

Air Quality

  Air Quality AQ Index Pollutant
Not available.

Snow Depth

Station Depth Elevation

Earthquake Activity

City Distance Mag. Time & Date
Minimum magnitude displayed is 2.5.

Coastal Water Temperatures

Place Temperature

Stations

Nearby Weather Stations

Station Location Temp. Windchill Dew Point Humidity Wind Precip. Elev Updated Type
                   

Watches & Warnings

There are currently no watches in effect.